Oleksiy Sirenko

Recruteur - Vorskla
21 Oct 2027
Jeudi
Processus

Personnalité

Adaptabilité (8) Ambition (7) Controverse (11) Loyauté (18) Pression (1) Professionnalisme (16) Sportivité (9) Tempérament (15)

Profil

Style d'entraînement Démocratique
Diplôme National A
Détermination 5
Gestion des joueurs 5
Motivation 10
Discipline 8
Satisfaction professionnelle
97%
Fatigue
0%
Rôle Recruteur
Salaire 41.7K p/s
Contrat 14.03.2029

Performance

Comportement Bon
Efficacité de l'entraînement
30%
Développement des joueurs
15%
Prévention des blessures
25%
Mise en place tactique
30%

Événements récents

A participé à une réunion de recrutement maintenant
A participé à une réunion de recrutement 7j
A évalué un joueur 7j
A évalué un joueur 7j
A évalué un joueur 7j
A évalué un joueur 7j
A évalué un joueur 14j
A évalué un joueur 14j

Suivi en cours

90
Joueur Club Statut Capacité Confiance Observé Dernière observation Dernier vote
Sunday Megwo Abia Warriors Actif 101 / 107 40% 4 20.10.2027 -
Jhoao Rodríguez Deportes Quindio Actif 104 / 107 40% 7 20.10.2027 -
Gustavo Viera Cerro Largo Actif 94 / 87 40% 1 20.10.2027 -
Sagir Arce Saburtalo Actif 104 / 105 40% 3 19.10.2027 -
Agustín Gallo Tristán Suárez Actif 111 / 105 40% 1 19.10.2027 -
Augusto Berrondo Tristán Suárez Actif 108 / 103 40% 1 19.10.2027 -
Agustín Lavezzi Quilmes Actif 105 / 103 40% 2 17.10.2027 -
Juan David Rueda Alianza Petrolera Actif 111 / 95 40% 1 17.10.2027 -
Luca Franco Arsenal Actif 98 / 116 40% 1 17.10.2027 -
Felipe Valencia Valledupar Actif 127 / 109 40% 4 16.10.2027 -
Ronaldo Peña Deportivo Lara Actif 106 / 94 40% 2 16.10.2027 -
Owen Falconis Cerrito Actif 105 / 86 40% 1 16.10.2027 -
Erik Bodencer Central Norte Actif 118 / 96 40% 5 15.10.2027 -
Marcos Camarda Santiago Wanderers Actif 96 / 117 40% 5 14.10.2027 -
Timothy Zechariah Rivers United Actif 95 / 99 40% 1 14.10.2027 -
Juan Cruz Zurbriggen San Telmo Actif 100 / 108 40% 1 14.10.2027 -
Santiago Sala Güemes Actif 115 / 114 40% 2 10.10.2027 -
Samuel Anakwe Remo Stars Actif 94 / 98 40% 3 09.10.2027 -
Tornike Mikautadze Tskhinvali Actif 106 / 80 40% 1 09.10.2027 -
Lautaro Gordillo Colegiales Actif 104 / 109 40% 4 08.10.2027 -
Thiago Calone All Boys Actif 127 / 124 40% 4 08.10.2027 -
Gianluca Pugliese Güemes Actif 102 / 102 40% 1 08.10.2027 -
Renzo Reynaga Patronato Actif 99 / 121 40% 3 07.10.2027 -
Lisandro Cabrera Maipú Actif 116 / 125 40% 2 07.10.2027 -
Franco Ayunta Temperley Actif 105 / 126 40% 3 06.10.2027 -
Alan Bonansea Colón Actif 103 / 114 40% 1 06.10.2027 -
Chukwuemeka Obioma Abia Warriors Actif 96 / 94 40% 4 05.10.2027 -
Ismail Sarki Niger Tornadoes Actif 103 / 91 40% 1 05.10.2027 -
Richard Figueroa Deportivo Lara Actif 121 / 117 40% 2 03.10.2027 -
Germán Cervera Alvarado Actif 113 / 88 40% 4 02.10.2027 -
Enzo González Defensores Actif 97 / 100 40% 3 01.10.2027 -
Abubakar Garba Nasarawa United Actif 89 / 99 40% 4 01.10.2027 -
Lucas Carrizo Plaza Colonia Actif 126 / 122 40% 1 30.09.2027 -
Salomon Ramirez Atletico Venezuela Actif 86 / 97 40% 1 28.09.2027 -
Marco Miori Alvarado Actif 123 / 104 40% 1 27.09.2027 -
Franco García Colón Actif 115 / 107 40% 3 25.09.2027 -
Rafael Moreno Atletico Venezuela Actif 108 / 119 40% 1 24.09.2027 -
John Valladares Santiago Wanderers Actif 108 / 95 40% 1 20.09.2027 -
Facundo Krüger Temperley Actif 127 / 104 40% 2 18.09.2027 -
Genaro Rossi San Martín SJ Actif 98 / 96 40% 2 18.09.2027 -
Jonathan Cañete Portuguesa Actif 121 / 115 40% 1 17.09.2027 -
Sebastián Cocimano Nueva Chicago Actif 113 / 113 40% 1 17.09.2027 -
Lorenzo Barrera Agropecuario Argentino Actif 92 / 108 40% 1 17.09.2027 -
José Rivas Gamboa Trujillanos Actif 116 / 117 40% 1 16.09.2027 -
Samson Olasupo Remo Stars Actif 91 / 98 40% 2 15.09.2027 -
Lucas Pedraza Defensores Unidos Actif 101 / 115 40% 1 15.09.2027 -
Nicolás Heiz Maipú Actif 94 / 112 40% 1 11.09.2027 -
Rodrigo Pollero Deportivo Tachira Actif 97 / 115 40% 1 10.09.2027 -
Elías Ayala Madryn Actif 102 / 94 40% 1 07.09.2027 -
Matías Samaniego Talleres Actif 88 / 109 40% 1 06.09.2027 -
Sebastián Marfort Racing Actif 105 / 96 40% 1 06.09.2027 -
Sebastián Parada San Luis Actif 94 / 89 40% 1 03.09.2027 -
Ernest Astakhov Livyi Bereh Refusé 83 / 79 65% 1 02.08.2027 Refuser
Sam Nombe Milton Keynes Dons Perdu 118 / 101 40% 3 12.07.2027 Observer
Tyrese Shade Burton Albion Actif 99 / 88 40% 3 12.07.2027 -
Pavlo Savchuk Podillia Refusé 86 / 85 65% 1 05.07.2027 Refuser
Vladyslav Ostrovskyi Metalist Perdu 94 / 103 65% 1 28.06.2027 -
Ruslan Chernenko Podillia Perdu 84 / 89 65% 1 19.06.2027 -
Mees Rijks Bristol Rovers Actif 125 / 127 40% 7 12.06.2027 -
Paul Glatzel Swindon Town Actif 106 / 95 40% 3 12.06.2027 -
Matteo Rover Reggiana Refusé 131 / 126 40% 1 11.06.2027 Plus d'infos
John McAtee Leyton Orient Refusé 107 / 118 40% 3 09.06.2027 Refuser
Luca Moro Padova Refusé 121 / 108 40% 3 08.06.2027 Refuser
Bernat Guiu Virtus Entella Refusé 128 / 125 40% 3 07.06.2027 Refuser
Aaron Drinan Swindon Town Actif 97 / 111 40% 1 06.06.2027 -
Christian Saydee Wigan Athletic Actif 112 / 112 40% 3 04.06.2027 -
Walid Cheddira Avellino Actif 120 / 116 40% 2 04.06.2027 -
Bradley Fink Wycombe Wanderers Actif 106 / 98 40% 1 03.06.2027 -
Will Swan Bradford City Actif 93 / 94 40% 1 02.06.2027 -
Stephen Amankona Aduana Stars Actif 100 / 89 40% 4 27.05.2027 -
Danny Butterworth Accrington Stanley Actif 81 / 105 40% 1 27.05.2027 -
Simone Mazzocchi Cosenza Actif 125 / 123 40% 1 26.05.2027 -
Lorent Tolaj Plymouth Argyle Actif 118 / 118 40% 6 25.05.2027 -
Stephen Humphrys Bradford City Actif 124 / 120 40% 2 25.05.2027 -
Fábio Tavares Burton Albion Actif 109 / 95 40% 1 19.05.2027 -
Etiosa Ighodaro Kaizer Chiefs Actif 119 / 127 40% 1 13.05.2027 -
Patrick Cutrone Monza Actif 138 / 140 40% 1 13.05.2027 -
Tyreece Campbell Charlton Athletic Actif 122 / 116 40% 1 11.05.2027 -
John Yeboah Venezia Actif 134 / 106 40% 2 08.05.2027 -
Erick Dolly Black Aces Actif 100 / 105 40% 1 08.05.2027 -
Aaron Collins Milton Keynes Dons Actif 108 / 127 40% 2 06.05.2027 -
Dale Taylor Blackpool Actif 118 / 105 40% 1 05.05.2027 -
Matty Stevens AFC Wimbledon Actif 108 / 109 40% 1 05.05.2027 -
Marko Kytsun Nyva Refusé 66 / 80 62% 1 31.01.2027 Refuser
Morgan Tau Ajax Cape Town Actif 109 / 90 40% 1 24.01.2027 -
Volodymyr Shepeliev Polissia Actif 118 / 116 40% 1 24.08.2026 -
Pedro Silva Torrejón Gimnasia La Plata Actif 118 / 107 40% 1 24.08.2026 -
Fawaaz Basadien Mamelodi Sundowns Actif 110 / 99 40% 1 17.08.2026 -
Rui Modesto Vancouver Whitecaps Actif 111 / 127 40% 1 17.08.2026 -
Liam Roberts Mansfield Town Actif 96 / 92 40% 1 01.08.2026 -